sensor_id;sensor_type;location;lat;lon;timestamp;P1;durP1;ratioP1;P2;durP2;ratioP2
20865;SDS011;10593;48.398;10.698;2023-03-01T00:01:09;10.87;;;9.73;;
20865;SDS011;10593;48.398;10.698;2023-03-01T00:06:13;9.70;;;8.70;;
20865;SDS011;10593;48.398;10.698;2023-03-01T00:08:39;10.40;;;9.40;;
20865;SDS011;10593;48.398;10.698;2023-03-01T00:11:16;10.47;;;9.37;;
20865;SDS011;10593;48.398;10.698;2023-03-01T00:26:52;10.20;;;9.17;;
20865;SDS011;10593;48.398;10.698;2023-03-01T00:29:20;11.30;;;10.20;;
20865;SDS011;10593;48.398;10.698;2023-03-01T00:31:48;9.87;;;8.87;;
20865;SDS011;10593;48.398;10.698;2023-03-01T00:34:14;11.17;;;10.00;;
20865;SDS011;10593;48.398;10.698;2023-03-01T00:36:39;10.93;;;9.50;;
20865;SDS011;10593;48.398;10.698;2023-03-01T00:39:07;10.17;;;9.13;;
20865;SDS011;10593;48.398;10.698;2023-03-01T00:41:37;10.57;;;9.47;;
20865;SDS011;10593;48.398;10.698;2023-03-01T00:44:02;10.03;;;9.03;;
20865;SDS011;10593;48.398;10.698;2023-03-01T00:46:28;10.70;;;9.63;;
20865;SDS011;10593;48.398;10.698;2023-03-01T00:48:55;11.50;;;10.30;;
20865;SDS011;10593;48.398;10.698;2023-03-01T00:51:24;10.13;;;9.13;;
20865;SDS011;10593;48.398;10.698;2023-03-01T00:53:53;11.07;;;9.70;;
20865;SDS011;10593;48.398;10.698;2023-03-01T00:56:21;11.63;;;10.43;;
20865;SDS011;10593;48.398;10.698;2023-03-01T00:58:48;10.43;;;9.30;;
20865;SDS011;10593;48.398;10.698;2023-03-01T01:01:19;10.80;;;9.70;;
20865;SDS011;10593;48.398;10.698;2023-03-01T01:03:59;11.00;;;10.00;;
20865;SDS011;10593;48.398;10.698;2023-03-01T01:06:29;9.97;;;8.97;;
20865;SDS011;10593;48.398;10.698;2023-03-01T01:09:01;10.80;;;9.70;;
20865;SDS011;10593;48.398;10.698;2023-03-01T01:11:30;11.23;;;10.10;;
20865;SDS011;10593;48.398;10.698;2023-03-01T01:13:56;11.07;;;9.50;;
20865;SDS011;10593;48.398;10.698;2023-03-01T01:16:24;10.60;;;9.37;;
20865;SDS011;10593;48.398;10.698;2023-03-01T01:18:52;10.17;;;9.17;;
20865;SDS011;10593;48.398;10.698;2023-03-01T01:21:19;10.60;;;9.50;;
20865;SDS011;10593;48.398;10.698;2023-03-01T01:23:48;10.43;;;9.20;;
20865;SDS011;10593;48.398;10.698;2023-03-01T01:26:25;10.77;;;9.67;;
20865;SDS011;10593;48.398;10.698;2023-03-01T01:28:57;10.40;;;9.33;;
20865;SDS011;10593;48.398;10.698;2023-03-01T01:31:25;11.60;;;10.50;;
20865;SDS011;10593;48.398;10.698;2023-03-01T01:33:53;11.93;;;10.73;;
20865;SDS011;10593;48.398;10.698;2023-03-01T01:36:20;11.20;;;10.10;;
20865;SDS011;10593;48.398;10.698;2023-03-01T01:38:47;11.00;;;9.90;;
20865;SDS011;10593;48.398;10.698;2023-03-01T01:41:13;12.57;;;10.70;;
20865;SDS011;10593;48.398;10.698;2023-03-01T01:43:41;11.17;;;10.07;;
20865;SDS011;10593;48.398;10.698;2023-03-01T01:46:14;11.23;;;9.97;;
20865;SDS011;10593;48.398;10.698;2023-03-01T01:48:59;11.23;;;9.57;;
20865;SDS011;10593;48.398;10.698;2023-03-01T01:51:35;11.90;;;9.93;;
20865;SDS011;10593;48.398;10.698;2023-03-01T01:54:08;10.60;;;9.60;;
20865;SDS011;10593;48.398;10.698;2023-03-01T01:56:42;11.90;;;10.60;;
20865;SDS011;10593;48.398;10.698;2023-03-01T01:59:24;11.30;;;9.57;;
20865;SDS011;10593;48.398;10.698;2023-03-01T02:01:52;10.83;;;9.73;;
20865;SDS011;10593;48.398;10.698;2023-03-01T02:04:19;11.17;;;10.03;;
20865;SDS011;10593;48.398;10.698;2023-03-01T02:06:51;10.90;;;9.80;;
20865;SDS011;10593;48.398;10.698;2023-03-01T02:09:41;10.90;;;9.43;;
20865;SDS011;10593;48.398;10.698;2023-03-01T02:12:11;12.53;;;10.43;;
20865;SDS011;10593;48.398;10.698;2023-03-01T02:14:42;10.37;;;9.23;;
20865;SDS011;10593;48.398;10.698;2023-03-01T02:17:08;11.57;;;10.37;;
20865;SDS011;10593;48.398;10.698;2023-03-01T02:19:41;10.27;;;9.27;;
20865;SDS011;10593;48.398;10.698;2023-03-01T02:22:44;12.00;;;10.73;;
20865;SDS011;10593;48.398;10.698;2023-03-01T02:31:03;11.57;;;10.47;;
20865;SDS011;10593;48.398;10.698;2023-03-01T02:33:51;10.53;;;9.43;;
20865;SDS011;10593;48.398;10.698;2023-03-01T02:36:22;10.93;;;9.57;;
20865;SDS011;10593;48.398;10.698;2023-03-01T02:38:53;10.93;;;9.70;;
20865;SDS011;10593;48.398;10.698;2023-03-01T02:41:23;12.03;;;10.77;;
20865;SDS011;10593;48.398;10.698;2023-03-01T02:43:53;11.30;;;10.10;;
20865;SDS011;10593;48.398;10.698;2023-03-01T02:46:23;12.10;;;10.80;;
20865;SDS011;10593;48.398;10.698;2023-03-01T02:48:51;11.27;;;10.13;;
20865;SDS011;10593;48.398;10.698;2023-03-01T02:56:50;13.27;;;10.50;;
20865;SDS011;10593;48.398;10.698;2023-03-01T02:59:18;11.80;;;10.40;;
20865;SDS011;10593;48.398;10.698;2023-03-01T03:01:47;11.60;;;10.30;;
20865;SDS011;10593;48.398;10.698;2023-03-01T03:04:14;11.43;;;10.33;;
20865;SDS011;10593;48.398;10.698;2023-03-01T03:06:46;11.63;;;10.43;;
20865;SDS011;10593;48.398;10.698;2023-03-01T03:09:14;11.47;;;10.27;;
20865;SDS011;10593;48.398;10.698;2023-03-01T03:11:41;11.13;;;10.03;;
20865;SDS011;10593;48.398;10.698;2023-03-01T03:14:08;11.17;;;9.93;;
20865;SDS011;10593;48.398;10.698;2023-03-01T03:16:44;11.53;;;10.37;;
20865;SDS011;10593;48.398;10.698;2023-03-01T03:19:16;11.20;;;10.00;;
20865;SDS011;10593;48.398;10.698;2023-03-01T03:21:43;11.57;;;10.40;;
20865;SDS011;10593;48.398;10.698;2023-03-01T03:24:09;11.60;;;10.50;;
20865;SDS011;10593;48.398;10.698;2023-03-01T03:26:34;11.90;;;10.80;;
20865;SDS011;10593;48.398;10.698;2023-03-01T03:29:00;12.87;;;10.23;;
20865;SDS011;10593;48.398;10.698;2023-03-01T03:31:26;10.90;;;9.77;;
20865;SDS011;10593;48.398;10.698;2023-03-01T03:33:52;10.80;;;9.70;;
20865;SDS011;10593;48.398;10.698;2023-03-01T03:36:19;11.77;;;10.57;;
20865;SDS011;10593;48.398;10.698;2023-03-01T03:38:48;13.30;;;10.43;;
20865;SDS011;10593;48.398;10.698;2023-03-01T03:41:14;11.83;;;10.60;;
20865;SDS011;10593;48.398;10.698;2023-03-01T03:43:42;11.37;;;10.27;;
20865;SDS011;10593;48.398;10.698;2023-03-01T03:46:09;11.23;;;9.70;;
20865;SDS011;10593;48.398;10.698;2023-03-01T03:48:40;11.43;;;10.23;;
20865;SDS011;10593;48.398;10.698;2023-03-01T03:51:12;10.97;;;9.87;;
20865;SDS011;10593;48.398;10.698;2023-03-01T03:53:40;11.83;;;10.47;;
20865;SDS011;10593;48.398;10.698;2023-03-01T03:56:07;11.50;;;10.27;;
20865;SDS011;10593;48.398;10.698;2023-03-01T03:58:33;11.50;;;10.33;;
20865;SDS011;10593;48.398;10.698;2023-03-01T04:01:00;11.33;;;10.13;;
20865;SDS011;10593;48.398;10.698;2023-03-01T04:03:26;11.20;;;10.00;;
20865;SDS011;10593;48.398;10.698;2023-03-01T04:05:53;11.97;;;10.17;;
20865;SDS011;10593;48.398;10.698;2023-03-01T04:08:22;10.63;;;9.23;;
20865;SDS011;10593;48.398;10.698;2023-03-01T04:10:50;10.87;;;9.77;;
20865;SDS011;10593;48.398;10.698;2023-03-01T04:13:21;12.50;;;11.23;;
20865;SDS011;10593;48.398;10.698;2023-03-01T04:15:50;11.30;;;10.10;;
20865;SDS011;10593;48.398;10.698;2023-03-01T04:18:18;10.90;;;9.90;;
20865;SDS011;10593;48.398;10.698;2023-03-01T04:20:46;10.83;;;9.73;;
20865;SDS011;10593;48.398;10.698;2023-03-01T04:23:13;11.33;;;10.23;;
20865;SDS011;10593;48.398;10.698;2023-03-01T04:26:18;11.17;;;10.07;;
20865;SDS011;10593;48.398;10.698;2023-03-01T04:28:38;12.33;;;9.73;;
20865;SDS011;10593;48.398;10.698;2023-03-01T04:31:10;10.03;;;9.07;;
20865;SDS011;10593;48.398;10.698;2023-03-01T04:33:44;12.17;;;10.87;;
20865;SDS011;10593;48.398;10.698;2023-03-01T04:36:16;10.70;;;9.63;;
20865;SDS011;10593;48.398;10.698;2023-03-01T04:38:44;11.73;;;10.53;;
20865;SDS011;10593;48.398;10.698;2023-03-01T04:41:14;11.10;;;10.03;;
20865;SDS011;10593;48.398;10.698;2023-03-01T04:43:43;11.70;;;10.43;;
20865;SDS011;10593;48.398;10.698;2023-03-01T04:46:10;11.77;;;10.57;;
20865;SDS011;10593;48.398;10.698;2023-03-01T04:48:40;11.47;;;10.23;;
20865;SDS011;10593;48.398;10.698;2023-03-01T04:51:08;11.33;;;10.13;;
20865;SDS011;10593;48.398;10.698;2023-03-01T04:53:37;10.87;;;9.77;;
20865;SDS011;10593;48.398;10.698;2023-03-01T04:56:02;11.27;;;10.17;;
20865;SDS011;10593;48.398;10.698;2023-03-01T04:58:28;11.50;;;10.23;;
20865;SDS011;10593;48.398;10.698;2023-03-01T05:00:54;10.60;;;9.60;;
20865;SDS011;10593;48.398;10.698;2023-03-01T05:03:21;12.10;;;10.17;;
20865;SDS011;10593;48.398;10.698;2023-03-01T05:05:48;12.87;;;10.43;;
20865;SDS011;10593;48.398;10.698;2023-03-01T05:08:16;11.50;;;10.30;;
20865;SDS011;10593;48.398;10.698;2023-03-01T05:10:52;11.93;;;10.63;;
20865;SDS011;10593;48.398;10.698;2023-03-01T05:13:19;10.63;;;9.57;;
20865;SDS011;10593;48.398;10.698;2023-03-01T05:15:47;10.77;;;9.57;;
20865;SDS011;10593;48.398;10.698;2023-03-01T05:18:19;12.27;;;10.67;;
20865;SDS011;10593;48.398;10.698;2023-03-01T05:20:45;11.60;;;10.27;;
20865;SDS011;10593;48.398;10.698;2023-03-01T05:23:12;12.70;;;10.97;;
20865;SDS011;10593;48.398;10.698;2023-03-01T05:25:38;11.77;;;10.57;;
20865;SDS011;10593;48.398;10.698;2023-03-01T05:28:05;12.03;;;10.83;;
20865;SDS011;10593;48.398;10.698;2023-03-01T05:30:36;11.70;;;10.27;;
20865;SDS011;10593;48.398;10.698;2023-03-01T05:33:04;11.97;;;10.77;;
20865;SDS011;10593;48.398;10.698;2023-03-01T05:35:35;11.93;;;10.63;;
20865;SDS011;10593;48.398;10.698;2023-03-01T05:38:01;12.60;;;11.30;;
20865;SDS011;10593;48.398;10.698;2023-03-01T05:40:27;12.03;;;10.63;;
20865;SDS011;10593;48.398;10.698;2023-03-01T05:42:54;11.33;;;10.23;;
20865;SDS011;10593;48.398;10.698;2023-03-01T05:45:22;11.20;;;10.10;;
20865;SDS011;10593;48.398;10.698;2023-03-01T05:47:50;10.97;;;9.67;;
20865;SDS011;10593;48.398;10.698;2023-03-01T05:50:18;11.23;;;10.03;;
20865;SDS011;10593;48.398;10.698;2023-03-01T05:52:48;12.00;;;10.80;;
20865;SDS011;10593;48.398;10.698;2023-03-01T05:55:27;11.57;;;10.37;;
20865;SDS011;10593;48.398;10.698;2023-03-01T05:57:57;12.53;;;10.27;;
20865;SDS011;10593;48.398;10.698;2023-03-01T06:00:29;13.83;;;10.70;;
20865;SDS011;10593;48.398;10.698;2023-03-01T06:02:55;12.40;;;10.83;;
20865;SDS011;10593;48.398;10.698;2023-03-01T06:05:23;11.97;;;10.73;;
20865;SDS011;10593;48.398;10.698;2023-03-01T06:07:49;12.47;;;10.47;;
20865;SDS011;10593;48.398;10.698;2023-03-01T06:10:15;11.80;;;10.60;;
20865;SDS011;10593;48.398;10.698;2023-03-01T06:12:43;14.90;;;12.00;;
20865;SDS011;10593;48.398;10.698;2023-03-01T06:15:09;12.43;;;11.13;;
20865;SDS011;10593;48.398;10.698;2023-03-01T06:17:39;12.27;;;11.03;;
20865;SDS011;10593;48.398;10.698;2023-03-01T06:20:11;12.00;;;10.80;;
20865;SDS011;10593;48.398;10.698;2023-03-01T06:22:46;13.20;;;11.47;;
20865;SDS011;10593;48.398;10.698;2023-03-01T06:25:14;11.80;;;10.60;;
20865;SDS011;10593;48.398;10.698;2023-03-01T06:27:44;13.30;;;11.90;;
20865;SDS011;10593;48.398;10.698;2023-03-01T06:30:11;11.73;;;10.53;;
20865;SDS011;10593;48.398;10.698;2023-03-01T06:32:40;13.70;;;11.23;;
20865;SDS011;10593;48.398;10.698;2023-03-01T06:35:10;12.77;;;11.43;;
20865;SDS011;10593;48.398;10.698;2023-03-01T06:37:37;13.97;;;11.50;;
20865;SDS011;10593;48.398;10.698;2023-03-01T06:40:04;12.57;;;11.27;;
20865;SDS011;10593;48.398;10.698;2023-03-01T06:42:36;13.73;;;11.00;;
20865;SDS011;10593;48.398;10.698;2023-03-01T06:45:07;12.57;;;11.00;;
20865;SDS011;10593;48.398;10.698;2023-03-01T06:47:34;12.77;;;10.97;;
20865;SDS011;10593;48.398;10.698;2023-03-01T06:50:00;12.63;;;11.33;;
20865;SDS011;10593;48.398;10.698;2023-03-01T06:52:27;14.53;;;11.93;;
20865;SDS011;10593;48.398;10.698;2023-03-01T06:54:53;13.03;;;11.57;;
20865;SDS011;10593;48.398;10.698;2023-03-01T06:57:19;12.50;;;11.20;;
20865;SDS011;10593;48.398;10.698;2023-03-01T06:59:44;13.20;;;11.83;;
20865;SDS011;10593;48.398;10.698;2023-03-01T07:02:12;11.90;;;10.63;;
20865;SDS011;10593;48.398;10.698;2023-03-01T07:04:39;13.23;;;11.77;;
20865;SDS011;10593;48.398;10.698;2023-03-01T07:07:06;13.07;;;11.50;;
20865;SDS011;10593;48.398;10.698;2023-03-01T07:09:32;12.53;;;11.23;;
20865;SDS011;10593;48.398;10.698;2023-03-01T07:11:57;12.60;;;11.30;;
20865;SDS011;10593;48.398;10.698;2023-03-01T07:14:23;14.70;;;11.93;;
20865;SDS011;10593;48.398;10.698;2023-03-01T07:16:50;13.73;;;12.10;;
20865;SDS011;10593;48.398;10.698;2023-03-01T07:19:17;13.23;;;11.33;;
20865;SDS011;10593;48.398;10.698;2023-03-01T07:21:43;13.60;;;12.10;;
20865;SDS011;10593;48.398;10.698;2023-03-01T07:24:09;14.67;;;11.27;;
20865;SDS011;10593;48.398;10.698;2023-03-01T07:26:35;14.33;;;11.77;;
20865;SDS011;10593;48.398;10.698;2023-03-01T07:29:02;13.43;;;12.03;;
20865;SDS011;10593;48.398;10.698;2023-03-01T07:31:30;12.37;;;11.07;;
20865;SDS011;10593;48.398;10.698;2023-03-01T07:33:56;12.27;;;10.97;;
20865;SDS011;10593;48.398;10.698;2023-03-01T07:36:22;12.70;;;11.40;;
20865;SDS011;10593;48.398;10.698;2023-03-01T07:38:49;12.63;;;11.00;;
20865;SDS011;10593;48.398;10.698;2023-03-01T07:41:15;12.60;;;11.00;;
20865;SDS011;10593;48.398;10.698;2023-03-01T07:43:41;15.97;;;13.03;;
20865;SDS011;10593;48.398;10.698;2023-03-01T07:46:06;14.43;;;12.67;;
20865;SDS011;10593;48.398;10.698;2023-03-01T07:48:32;13.83;;;12.03;;
20865;SDS011;10593;48.398;10.698;2023-03-01T07:50:59;13.73;;;11.33;;
20865;SDS011;10593;48.398;10.698;2023-03-01T07:53:26;12.90;;;11.57;;
20865;SDS011;10593;48.398;10.698;2023-03-01T07:56:05;13.77;;;12.37;;
20865;SDS011;10593;48.398;10.698;2023-03-01T07:58:37;13.17;;;11.83;;
20865;SDS011;10593;48.398;10.698;2023-03-01T08:01:06;14.13;;;10.83;;
20865;SDS011;10593;48.398;10.698;2023-03-01T08:03:35;13.93;;;12.30;;
20865;SDS011;10593;48.398;10.698;2023-03-01T08:06:02;13.73;;;11.90;;
20865;SDS011;10593;48.398;10.698;2023-03-01T08:08:31;13.57;;;11.90;;
20865;SDS011;10593;48.398;10.698;2023-03-01T08:11:01;14.00;;;11.73;;
20865;SDS011;10593;48.398;10.698;2023-03-01T08:13:29;13.00;;;11.60;;
20865;SDS011;10593;48.398;10.698;2023-03-01T08:16:02;25.33;;;19.97;;
20865;SDS011;10593;48.398;10.698;2023-03-01T08:18:31;19.53;;;16.93;;
20865;SDS011;10593;48.398;10.698;2023-03-01T08:21:03;16.90;;;14.43;;
20865;SDS011;10593;48.398;10.698;2023-03-01T08:23:35;14.97;;;13.37;;
20865;SDS011;10593;48.398;10.698;2023-03-01T08:26:08;14.90;;;13.17;;
20865;SDS011;10593;48.398;10.698;2023-03-01T08:28:40;14.27;;;12.43;;
20865;SDS011;10593;48.398;10.698;2023-03-01T08:31:14;13.37;;;11.97;;
20865;SDS011;10593;48.398;10.698;2023-03-01T08:33:52;13.73;;;12.33;;
20865;SDS011;10593;48.398;10.698;2023-03-01T08:36:21;12.87;;;11.47;;
20865;SDS011;10593;48.398;10.698;2023-03-01T08:38:52;13.87;;;12.43;;
20865;SDS011;10593;48.398;10.698;2023-03-01T08:41:18;15.83;;;14.23;;
20865;SDS011;10593;48.398;10.698;2023-03-01T08:43:45;15.83;;;14.33;;
20865;SDS011;10593;48.398;10.698;2023-03-01T08:46:11;14.93;;;13.47;;
20865;SDS011;10593;48.398;10.698;2023-03-01T08:48:37;14.40;;;12.90;;
20865;SDS011;10593;48.398;10.698;2023-03-01T08:51:10;13.53;;;11.77;;
20865;SDS011;10593;48.398;10.698;2023-03-01T08:53:39;13.83;;;12.43;;
20865;SDS011;10593;48.398;10.698;2023-03-01T08:56:06;14.63;;;12.23;;
20865;SDS011;10593;48.398;10.698;2023-03-01T08:58:33;14.33;;;12.00;;
20865;SDS011;10593;48.398;10.698;2023-03-01T09:00:58;13.17;;;11.90;;
20865;SDS011;10593;48.398;10.698;2023-03-01T09:03:25;14.20;;;12.13;;
20865;SDS011;10593;48.398;10.698;2023-03-01T09:05:52;12.47;;;11.27;;
20865;SDS011;10593;48.398;10.698;2023-03-01T09:08:18;13.63;;;11.47;;
20865;SDS011;10593;48.398;10.698;2023-03-01T09:10:45;14.33;;;12.67;;
20865;SDS011;10593;48.398;10.698;2023-03-01T09:13:11;12.93;;;11.63;;
20865;SDS011;10593;48.398;10.698;2023-03-01T09:15:37;14.73;;;12.90;;
20865;SDS011;10593;48.398;10.698;2023-03-01T09:18:03;14.10;;;12.67;;
20865;SDS011;10593;48.398;10.698;2023-03-01T09:20:30;13.40;;;11.93;;
20865;SDS011;10593;48.398;10.698;2023-03-01T09:22:57;13.77;;;12.37;;
20865;SDS011;10593;48.398;10.698;2023-03-01T09:25:23;13.73;;;12.30;;
20865;SDS011;10593;48.398;10.698;2023-03-01T09:27:52;13.93;;;11.83;;
20865;SDS011;10593;48.398;10.698;2023-03-01T09:30:19;14.93;;;12.43;;
20865;SDS011;10593;48.398;10.698;2023-03-01T09:32:45;13.67;;;12.27;;
20865;SDS011;10593;48.398;10.698;2023-03-01T09:35:11;12.93;;;11.60;;
20865;SDS011;10593;48.398;10.698;2023-03-01T09:37:37;13.83;;;12.40;;
20865;SDS011;10593;48.398;10.698;2023-03-01T09:40:08;14.00;;;12.50;;
20865;SDS011;10593;48.398;10.698;2023-03-01T09:45:34;13.83;;;12.13;;
20865;SDS011;10593;48.398;10.698;2023-03-01T09:48:06;13.63;;;12.23;;
20865;SDS011;10593;48.398;10.698;2023-03-01T09:50:48;13.40;;;12.00;;
20865;SDS011;10593;48.398;10.698;2023-03-01T09:53:17;13.37;;;12.07;;
20865;SDS011;10593;48.398;10.698;2023-03-01T09:58:57;13.50;;;11.83;;
20865;SDS011;10593;48.398;10.698;2023-03-01T10:04:51;14.27;;;12.77;;
20865;SDS011;10593;48.398;10.698;2023-03-01T10:10:32;13.53;;;12.10;;
20865;SDS011;10593;48.398;10.698;2023-03-01T10:13:04;13.50;;;12.07;;
20865;SDS011;10593;48.398;10.698;2023-03-01T10:16:30;14.97;;;13.37;;
20865;SDS011;10593;48.398;10.698;2023-03-01T10:18:40;14.57;;;13.17;;
20865;SDS011;10593;48.398;10.698;2023-03-01T10:21:19;14.23;;;12.83;;
20865;SDS011;10593;48.398;10.698;2023-03-01T10:23:45;14.27;;;12.47;;
20865;SDS011;10593;48.398;10.698;2023-03-01T10:29:34;14.70;;;13.20;;
20865;SDS011;10593;48.398;10.698;2023-03-01T10:32:12;14.80;;;12.97;;
20865;SDS011;10593;48.398;10.698;2023-03-01T10:34:38;14.40;;;12.90;;
20865;SDS011;10593;48.398;10.698;2023-03-01T10:37:14;16.17;;;14.07;;
20865;SDS011;10593;48.398;10.698;2023-03-01T10:40:06;14.73;;;13.30;;
20865;SDS011;10593;48.398;10.698;2023-03-01T10:42:35;14.63;;;13.13;;
20865;SDS011;10593;48.398;10.698;2023-03-01T10:45:17;16.33;;;14.60;;
20865;SDS011;10593;48.398;10.698;2023-03-01T10:50:45;13.93;;;12.50;;
20865;SDS011;10593;48.398;10.698;2023-03-01T10:53:21;15.07;;;13.13;;
20865;SDS011;10593;48.398;10.698;2023-03-01T10:56:08;14.23;;;12.77;;
20865;SDS011;10593;48.398;10.698;2023-03-01T10:58:39;14.30;;;12.57;;
20865;SDS011;10593;48.398;10.698;2023-03-01T11:04:03;14.30;;;12.80;;
20865;SDS011;10593;48.398;10.698;2023-03-01T11:06:38;13.23;;;11.87;;
20865;SDS011;10593;48.398;10.698;2023-03-01T11:09:19;16.30;;;12.50;;
20865;SDS011;10593;48.398;10.698;2023-03-01T11:11:55;13.97;;;12.00;;
20865;SDS011;10593;48.398;10.698;2023-03-01T11:14:23;14.27;;;12.47;;
20865;SDS011;10593;48.398;10.698;2023-03-01T11:17:01;14.27;;;12.73;;
20865;SDS011;10593;48.398;10.698;2023-03-01T11:19:40;13.93;;;12.47;;
20865;SDS011;10593;48.398;10.698;2023-03-01T11:22:12;13.17;;;11.77;;
20865;SDS011;10593;48.398;10.698;2023-03-01T11:24:51;15.17;;;13.27;;
20865;SDS011;10593;48.398;10.698;2023-03-01T11:30:13;14.20;;;12.80;;
20865;SDS011;10593;48.398;10.698;2023-03-01T11:33:35;13.87;;;12.00;;
20865;SDS011;10593;48.398;10.698;2023-03-01T11:35:53;13.37;;;11.97;;
20865;SDS011;10593;48.398;10.698;2023-03-01T11:38:26;14.13;;;12.63;;
20865;SDS011;10593;48.398;10.698;2023-03-01T11:41:01;14.03;;;12.53;;
20865;SDS011;10593;48.398;10.698;2023-03-01T11:57:52;14.83;;;13.30;;
20865;SDS011;10593;48.398;10.698;2023-03-01T12:03:34;17.03;;;13.93;;
20865;SDS011;10593;48.398;10.698;2023-03-01T12:18:25;14.10;;;12.07;;
20865;SDS011;10593;48.398;10.698;2023-03-01T12:21:21;12.53;;;11.27;;
20865;SDS011;10593;48.398;10.698;2023-03-01T12:24:30;12.47;;;11.17;;
20865;SDS011;10593;48.398;10.698;2023-03-01T12:27:16;12.13;;;10.87;;
20865;SDS011;10593;48.398;10.698;2023-03-01T12:30:22;12.30;;;10.90;;
20865;SDS011;10593;48.398;10.698;2023-03-01T12:36:34;12.07;;;10.87;;
20865;SDS011;10593;48.398;10.698;2023-03-01T12:42:28;12.07;;;10.73;;
20865;SDS011;10593;48.398;10.698;2023-03-01T12:48:32;12.90;;;11.50;;
20865;SDS011;10593;48.398;10.698;2023-03-01T12:51:23;13.10;;;11.70;;
20865;SDS011;10593;48.398;10.698;2023-03-01T12:53:53;13.13;;;11.63;;
20865;SDS011;10593;48.398;10.698;2023-03-01T12:56:23;12.30;;;11.07;;
20865;SDS011;10593;48.398;10.698;2023-03-01T12:59:09;12.17;;;10.83;;
20865;SDS011;10593;48.398;10.698;2023-03-01T13:10:33;12.03;;;10.83;;
20865;SDS011;10593;48.398;10.698;2023-03-01T13:13:23;12.27;;;11.07;;
20865;SDS011;10593;48.398;10.698;2023-03-01T13:15:52;12.03;;;10.83;;
20865;SDS011;10593;48.398;10.698;2023-03-01T13:20:46;12.20;;;10.90;;
20865;SDS011;10593;48.398;10.698;2023-03-01T13:33:45;11.10;;;9.67;;
20865;SDS011;10593;48.398;10.698;2023-03-01T13:39:18;11.63;;;9.87;;
20865;SDS011;10593;48.398;10.698;2023-03-01T13:42:50;11.67;;;10.57;;
20865;SDS011;10593;48.398;10.698;2023-03-01T13:45:51;13.33;;;10.83;;
20865;SDS011;10593;48.398;10.698;2023-03-01T13:48:08;11.03;;;9.93;;
20865;SDS011;10593;48.398;10.698;2023-03-01T13:50:46;9.90;;;8.90;;
20865;SDS011;10593;48.398;10.698;2023-03-01T13:53:19;10.50;;;9.43;;
20865;SDS011;10593;48.398;10.698;2023-03-01T13:55:53;10.57;;;9.63;;
20865;SDS011;10593;48.398;10.698;2023-03-01T13:58:32;11.00;;;9.90;;
20865;SDS011;10593;48.398;10.698;2023-03-01T14:01:21;11.77;;;10.17;;
20865;SDS011;10593;48.398;10.698;2023-03-01T14:03:59;10.27;;;9.23;;
20865;SDS011;10593;48.398;10.698;2023-03-01T14:06:27;11.57;;;10.47;;
20865;SDS011;10593;48.398;10.698;2023-03-01T14:09:06;11.23;;;10.10;;
20865;SDS011;10593;48.398;10.698;2023-03-01T14:14:44;11.00;;;9.90;;
20865;SDS011;10593;48.398;10.698;2023-03-01T14:20:26;10.90;;;9.30;;
20865;SDS011;10593;48.398;10.698;2023-03-01T14:22:57;11.30;;;9.53;;
20865;SDS011;10593;48.398;10.698;2023-03-01T14:25:34;10.80;;;9.70;;
20865;SDS011;10593;48.398;10.698;2023-03-01T14:28:15;11.40;;;10.30;;
20865;SDS011;10593;48.398;10.698;2023-03-01T14:30:50;10.40;;;9.30;;
20865;SDS011;10593;48.398;10.698;2023-03-01T14:36:08;10.43;;;9.37;;
20865;SDS011;10593;48.398;10.698;2023-03-01T14:38:46;10.83;;;9.07;;
20865;SDS011;10593;48.398;10.698;2023-03-01T14:41:14;10.87;;;9.77;;
20865;SDS011;10593;48.398;10.698;2023-03-01T14:44:23;11.27;;;9.80;;
20865;SDS011;10593;48.398;10.698;2023-03-01T14:46:51;11.73;;;10.57;;
20865;SDS011;10593;48.398;10.698;2023-03-01T14:49:28;11.57;;;10.47;;
20865;SDS011;10593;48.398;10.698;2023-03-01T14:52:03;11.60;;;10.50;;
20865;SDS011;10593;48.398;10.698;2023-03-01T14:54:37;10.43;;;9.43;;
20865;SDS011;10593;48.398;10.698;2023-03-01T14:59:49;10.43;;;9.43;;
20865;SDS011;10593;48.398;10.698;2023-03-01T15:02:19;10.87;;;9.77;;
20865;SDS011;10593;48.398;10.698;2023-03-01T15:04:51;10.87;;;9.77;;
20865;SDS011;10593;48.398;10.698;2023-03-01T15:07:26;10.97;;;9.80;;
20865;SDS011;10593;48.398;10.698;2023-03-01T15:10:32;9.77;;;8.77;;
20865;SDS011;10593;48.398;10.698;2023-03-01T15:13:14;11.40;;;10.07;;
20865;SDS011;10593;48.398;10.698;2023-03-01T15:15:51;11.77;;;10.57;;
20865;SDS011;10593;48.398;10.698;2023-03-01T15:18:28;11.03;;;9.93;;
20865;SDS011;10593;48.398;10.698;2023-03-01T15:20:55;17.00;;;13.20;;
20865;SDS011;10593;48.398;10.698;2023-03-01T15:23:32;13.57;;;11.73;;
20865;SDS011;10593;48.398;10.698;2023-03-01T15:26:01;12.27;;;10.37;;
20865;SDS011;10593;48.398;10.698;2023-03-01T15:28:33;12.00;;;10.80;;
20865;SDS011;10593;48.398;10.698;2023-03-01T15:33:51;11.10;;;9.90;;
20865;SDS011;10593;48.398;10.698;2023-03-01T15:45:07;10.73;;;9.70;;
20865;SDS011;10593;48.398;10.698;2023-03-01T15:47:47;8.90;;;8.00;;
20865;SDS011;10593;48.398;10.698;2023-03-01T15:50:30;9.17;;;8.27;;
20865;SDS011;10593;48.398;10.698;2023-03-01T15:53:00;10.27;;;9.27;;
20865;SDS011;10593;48.398;10.698;2023-03-01T15:55:31;11.13;;;10.03;;
20865;SDS011;10593;48.398;10.698;2023-03-01T16:00:44;9.50;;;8.50;;
20865;SDS011;10593;48.398;10.698;2023-03-01T16:03:12;9.63;;;8.63;;
20865;SDS011;10593;48.398;10.698;2023-03-01T16:05:38;10.47;;;9.40;;
20865;SDS011;10593;48.398;10.698;2023-03-01T16:08:04;9.80;;;8.80;;
20865;SDS011;10593;48.398;10.698;2023-03-01T16:10:31;10.37;;;9.37;;
20865;SDS011;10593;48.398;10.698;2023-03-01T16:12:58;9.47;;;8.57;;
20865;SDS011;10593;48.398;10.698;2023-03-01T16:15:26;9.30;;;8.40;;
20865;SDS011;10593;48.398;10.698;2023-03-01T16:17:55;9.93;;;8.60;;
20865;SDS011;10593;48.398;10.698;2023-03-01T16:20:23;9.33;;;8.47;;
20865;SDS011;10593;48.398;10.698;2023-03-01T16:22:52;9.67;;;8.50;;
20865;SDS011;10593;48.398;10.698;2023-03-01T16:25:19;9.30;;;8.40;;
20865;SDS011;10593;48.398;10.698;2023-03-01T16:27:47;8.60;;;7.80;;
20865;SDS011;10593;48.398;10.698;2023-03-01T16:30:16;9.47;;;8.57;;
20865;SDS011;10593;48.398;10.698;2023-03-01T16:32:45;9.40;;;8.50;;
20865;SDS011;10593;48.398;10.698;2023-03-01T16:35:13;9.57;;;8.67;;
20865;SDS011;10593;48.398;10.698;2023-03-01T16:37:42;9.03;;;8.20;;
20865;SDS011;10593;48.398;10.698;2023-03-01T16:40:26;9.37;;;8.43;;
20865;SDS011;10593;48.398;10.698;2023-03-01T16:42:54;9.53;;;8.53;;
20865;SDS011;10593;48.398;10.698;2023-03-01T16:45:26;8.53;;;7.70;;
20865;SDS011;10593;48.398;10.698;2023-03-01T16:47:57;9.17;;;8.27;;
20865;SDS011;10593;48.398;10.698;2023-03-01T16:50:23;8.27;;;7.47;;
20865;SDS011;10593;48.398;10.698;2023-03-01T16:52:49;9.13;;;8.23;;
20865;SDS011;10593;48.398;10.698;2023-03-01T16:55:14;8.80;;;8.00;;
20865;SDS011;10593;48.398;10.698;2023-03-01T16:57:40;8.87;;;8.07;;
20865;SDS011;10593;48.398;10.698;2023-03-01T17:00:06;9.23;;;8.33;;